Terminal Aerodrome Forecast
Issued by NWS

Home | Current Version | Previous Version | Text Only | Print | Product List | Glossary On
Versions: 1 2 3 4 5 6 7 8 9 10 11 12 13 14 15 16 17 18 19 20 21 22 23 24 25
981
FTUS42 KFFC 161729
TAFFTY
TAF
KFTY 161729Z 1618/1718 12004KT P6SM FEW040 BKN070 BKN250
     FM162200 14004KT P6SM BKN070 BKN150
     FM170800 14003KT P6SM SCT030 BKN100
     FM171400 17004KT P6SM BKN070
     FM171700 20006KT P6SM SCT030 BKN060=

USA.gov is the U.S. government's official web portal to all federal, state and local government web resources and services.